Time;durP1;ratioP1;P1;durP2;ratioP2;P2;SDS_P1;SDS_P2;PMS_P1;PMS_P2;Temp;Humidity;BMP_temperature;BMP_pressure;BME280_temperature;BME280_humidity;BME280_pressure;Samples;Min_cycle;Max_cycle;Signal;HPM_P1;HPM_P2
2021/07/31 00:00:18;;;;;;;;;;;;;;;20.98;50.40;99470.81;10456434;28;20049;-62
2021/07/31 00:05:19;;;;;;;;;;;;;;;20.98;51.24;99471.63;10458660;28;19952;-61
2021/07/31 00:10:21;;;;;;;;;;;;;;;20.83;51.05;99477.25;10467742;28;19986;-61
2021/07/31 00:15:22;;;;;;;;;;;;;;;20.75;50.85;99482.91;10457105;28;20397;-62
2021/07/31 00:20:23;;;;;;;;;;;;;;;20.72;49.62;99488.72;10467304;28;19931;-62
2021/07/31 00:25:25;;;;;;;;;;;;;;;20.66;48.47;99484.97;10456288;28;19953;-62
2021/07/31 00:30:27;;;;;;;;;;;;;;;20.59;47.66;99483.28;10469072;28;20367;-62
2021/07/31 00:35:29;;;;;;;;;;;;;;;20.52;47.74;99479.75;10459656;28;20360;-62
2021/07/31 00:40:30;;;;;;;;;;;;;;;20.57;47.44;99475.38;10447430;28;20630;-62
2021/07/31 00:45:32;;;;;;;;;;;;;;;20.62;47.64;99488.28;10465490;28;19960;-62
2021/07/31 00:50:33;;;;;;;;;;;;;;;20.49;47.87;99472.88;10452605;28;20049;-61
2021/07/31 00:55:36;;;;;;;;;;;;;;;20.39;48.13;99477.88;10455874;28;20371;-62
2021/07/31 01:00:37;;;;;;;;;;;;;;;20.36;47.97;99467.50;10443814;28;19962;-63
2021/07/31 01:05:39;;;;;;;;;;;;;;;20.36;47.74;99472.91;10457936;28;20302;-61
2021/07/31 01:10:40;;;;;;;;;;;;;;;20.34;48.45;99469.53;10456230;28;19962;-61
2021/07/31 01:15:55;;;;;;;;;;;;;;;20.25;48.94;99455.41;10467058;28;20408;-62
2021/07/31 01:20:56;;;;;;;;;;;;;;;20.18;49.11;99457.28;10455994;28;19960;-62
2021/07/31 01:25:58;;;;;;;;;;;;;;;20.24;49.38;99464.56;10456156;28;20005;-64
2021/07/31 01:30:59;;;;;;;;;;;;;;;20.12;50.43;99467.84;10438881;28;20015;-62
2021/07/31 01:36:00;;;;;;;;;;;;;;;20.12;50.87;99470.56;10451709;28;19932;-62
2021/07/31 01:41:02;;;;;;;;;;;;;;;20.04;49.72;99459.97;10456020;28;19929;-61
2021/07/31 01:46:03;;;;;;;;;;;;;;;19.98;50.17;99457.22;10465995;28;19975;-62
2021/07/31 01:51:04;;;;;;;;;;;;;;;19.90;50.88;99459.06;10451907;28;20397;-62
2021/07/31 01:56:06;;;;;;;;;;;;;;;19.91;50.80;99457.22;10444342;28;19974;-62
2021/07/31 02:01:07;;;;;;;;;;;;;;;19.96;50.59;99470.94;10454093;28;19994;-61
2021/07/31 02:06:09;;;;;;;;;;;;;;;19.77;50.96;99473.38;10446803;28;19935;-61
2021/07/31 02:11:11;;;;;;;;;;;;;;;19.59;51.84;99473.91;10438640;28;19976;-62
2021/07/31 02:16:20;;;;;;;;;;;;;;;19.60;51.62;99472.84;10438443;28;19978;-61
2021/07/31 02:21:21;;;;;;;;;;;;;;;19.57;51.65;99472.44;10443137;28;19925;-62
2021/07/31 02:26:24;;;;;;;;;;;;;;;19.54;51.92;99478.25;10443731;28;20001;-62
2021/07/31 02:31:25;;;;;;;;;;;;;;;19.47;52.23;99490.88;10453179;28;20564;-62
2021/07/31 02:36:27;;;;;;;;;;;;;;;19.40;52.41;99477.34;10461750;28;19925;-61
2021/07/31 02:41:28;;;;;;;;;;;;;;;19.37;52.57;99473.19;10461893;28;20471;-66
2021/07/31 02:46:29;;;;;;;;;;;;;;;19.20;52.83;99474.53;10453025;28;20016;-61
2021/07/31 02:51:31;;;;;;;;;;;;;;;19.15;52.97;99468.91;10452025;28;19931;-62
2021/07/31 02:56:33;;;;;;;;;;;;;;;19.06;53.05;99479.84;10452700;28;19960;-61
2021/07/31 03:01:35;;;;;;;;;;;;;;;18.96;53.94;99474.00;10449124;28;19974;-62
2021/07/31 03:06:36;;;;;;;;;;;;;;;18.94;53.80;99475.22;10431184;28;20146;-62
2021/07/31 03:11:38;;;;;;;;;;;;;;;18.91;54.06;99479.13;10443563;28;20443;-62
2021/07/31 03:16:39;;;;;;;;;;;;;;;18.63;54.67;99479.09;10457848;28;19986;-62
2021/07/31 03:21:41;;;;;;;;;;;;;;;18.56;54.72;99479.03;10432215;28;19924;-62
2021/07/31 03:26:42;;;;;;;;;;;;;;;18.52;55.38;99480.44;10434053;28;20011;-62
2021/07/31 03:31:44;;;;;;;;;;;;;;;18.56;54.86;99484.44;10443204;28;19964;-62
2021/07/31 03:36:51;;;;;;;;;;;;;;;18.52;54.91;99492.06;10446795;28;19931;-61
2021/07/31 03:41:54;;;;;;;;;;;;;;;18.45;54.97;99491.19;10446545;28;19953;-61
2021/07/31 03:46:56;;;;;;;;;;;;;;;18.37;55.40;99491.28;10451167;28;19979;-61
2021/07/31 03:51:57;;;;;;;;;;;;;;;18.24;55.75;99497.41;10431709;28;19924;-62
2021/07/31 03:56:59;;;;;;;;;;;;;;;18.22;55.79;99494.06;10448335;28;19960;-62
2021/07/31 04:02:02;;;;;;;;;;;;;;;18.08;56.08;99493.09;10444121;28;20394;-62
2021/07/31 04:07:04;;;;;;;;;;;;;;;18.01;56.45;99497.56;10439837;28;19932;-61
2021/07/31 04:12:05;;;;;;;;;;;;;;;17.98;56.24;99497.94;10436746;28;20108;-61
2021/07/31 04:17:07;;;;;;;;;;;;;;;18.06;56.16;99499.69;10443174;28;19994;-61
2021/07/31 04:22:08;;;;;;;;;;;;;;;18.11;56.41;99505.34;10441942;28;19932;-61
2021/07/31 04:27:10;;;;;;;;;;;;;;;18.03;56.03;99506.31;10442701;28;19929;-62
2021/07/31 04:32:11;;;;;;;;;;;;;;;18.02;55.80;99510.84;10440832;28;20604;-62
2021/07/31 04:37:12;;;;;;;;;;;;;;;18.06;55.60;99510.47;10420307;28;21044;-61
2021/07/31 04:42:14;;;;;;;;;;;;;;;18.06;55.28;99511.31;10455571;28;19925;-62
2021/07/31 04:47:15;;;;;;;;;;;;;;;18.25;54.84;99507.13;10450364;28;20409;-61
2021/07/31 04:52:16;;;;;;;;;;;;;;;18.00;55.41;99502.13;10449752;28;19944;-62
2021/07/31 04:57:18;;;;;;;;;;;;;;;18.20;55.13;99512.28;10436246;28;19974;-61
2021/07/31 05:02:19;;;;;;;;;;;;;;;18.15;54.37;99499.38;10452760;28;19974;-61
2021/07/31 05:07:21;;;;;;;;;;;;;;;18.18;54.55;99519.72;10447280;28;19968;-62
2021/07/31 05:12:22;;;;;;;;;;;;;;;18.31;54.30;99514.44;10447387;28;19959;-62
2021/07/31 05:17:23;;;;;;;;;;;;;;;18.43;54.09;99517.47;10448923;28;19932;-61
2021/07/31 05:22:25;;;;;;;;;;;;;;;18.51;54.33;99524.59;10456284;28;19925;-62
2021/07/31 05:27:26;;;;;;;;;;;;;;;18.46;54.54;99532.41;10452516;28;19959;-61
2021/07/31 05:32:27;;;;;;;;;;;;;;;18.43;54.70;99530.94;10448980;28;19948;-61
2021/07/31 05:37:31;;;;;;;;;;;;;;;18.49;54.76;99526.66;10449416;28;20515;-61
2021/07/31 05:42:33;;;;;;;;;;;;;;;18.54;54.55;99535.00;10454192;28;20389;-61
2021/07/31 05:47:35;;;;;;;;;;;;;;;18.56;54.37;99538.31;10461449;28;20032;-61
2021/07/31 05:52:40;;;;;;;;;;;;;;;18.71;54.30;99530.16;10452417;28;19924;-61
2021/07/31 05:57:41;;;;;;;;;;;;;;;18.62;54.23;99534.84;10452269;28;20434;-63
2021/07/31 06:02:43;;;;;;;;;;;;;;;18.72;54.50;99537.25;10444963;28;19924;-58
2021/07/31 06:07:44;;;;;;;;;;;;;;;18.82;55.42;99536.88;10467913;28;19931;-58
2021/07/31 06:12:46;;;;;;;;;;;;;;;18.86;54.26;99538.22;10477593;27;20016;-58
2021/07/31 06:17:47;;;;;;;;;;;;;;;18.94;53.78;99535.34;10478444;28;20030;-58
2021/07/31 06:22:48;;;;;;;;;;;;;;;19.07;54.02;99524.66;10475964;28;21521;-58
2021/07/31 06:27:53;;;;;;;;;;;;;;;18.96;53.94;99538.72;10475456;28;20452;-58
2021/07/31 06:32:54;;;;;;;;;;;;;;;18.99;54.98;99554.50;10458583;28;19932;-58
2021/07/31 06:37:55;;;;;;;;;;;;;;;19.14;54.49;99542.75;10476016;28;19935;-59
2021/07/31 06:42:57;;;;;;;;;;;;;;;19.48;53.43;99535.72;10468566;28;19929;-58
2021/07/31 06:47:58;;;;;;;;;;;;;;;19.76;52.54;99544.56;10472300;28;19928;-58
2021/07/31 06:52:59;;;;;;;;;;;;;;;19.56;52.84;99554.44;10474280;28;20433;-59
2021/07/31 06:58:01;;;;;;;;;;;;;;;19.75;52.18;99542.91;10475472;28;20356;-57
2021/07/31 07:03:02;;;;;;;;;;;;;;;19.81;51.80;99552.09;10477382;28;22404;-59
2021/07/31 07:08:04;;;;;;;;;;;;;;;19.85;52.07;99553.38;10467947;28;19924;-59
2021/07/31 07:13:06;;;;;;;;;;;;;;;19.94;51.60;99543.25;10470395;28;20028;-58
2021/07/31 07:18:07;;;;;;;;;;;;;;;20.16;51.01;99551.19;10455412;28;19928;-60
2021/07/31 07:23:09;;;;;;;;;;;;;;;20.23;50.87;99557.47;10468106;28;20023;-61
2021/07/31 07:28:10;;;;;;;;;;;;;;;20.38;49.99;99558.13;10468055;28;20243;-61
2021/07/31 07:33:12;;;;;;;;;;;;;;;20.40;49.93;99555.19;10471547;28;19981;-61
2021/07/31 07:38:13;;;;;;;;;;;;;;;20.30;49.80;99545.63;10470655;28;20457;-61
2021/07/31 07:43:14;;;;;;;;;;;;;;;20.34;49.95;99556.03;10462986;28;20070;-61
2021/07/31 07:48:16;;;;;;;;;;;;;;;20.52;48.77;99541.91;10474802;28;20558;-61
2021/07/31 07:53:17;;;;;;;;;;;;;;;20.53;49.30;99540.88;10475745;28;20061;-61
2021/07/31 07:58:18;;;;;;;;;;;;;;;20.64;48.27;99546.53;10470623;28;20367;-61
2021/07/31 08:03:20;;;;;;;;;;;;;;;20.78;48.52;99554.69;10469836;28;19983;-61
2021/07/31 08:08:21;;;;;;;;;;;;;;;20.94;47.56;99562.38;10467373;28;19998;-61
2021/07/31 08:13:23;;;;;;;;;;;;;;;21.28;46.79;99562.34;10468962;28;19932;-62
2021/07/31 08:18:24;;;;;;;;;;;;;;;21.14;47.19;99556.94;10479700;28;20030;-61
2021/07/31 08:23:25;;;;;;;;;;;;;;;21.27;47.17;99561.53;10457800;28;19968;-61
2021/07/31 08:28:26;;;;;;;;;;;;;;;21.43;46.95;99559.41;10478141;28;20073;-61
2021/07/31 08:33:28;;;;;;;;;;;;;;;21.81;46.09;99569.53;10481034;28;19931;-62
2021/07/31 08:38:29;;;;;;;;;;;;;;;22.11;45.23;99569.81;10466539;28;19957;-62
2021/07/31 08:43:31;;;;;;;;;;;;;;;22.13;44.62;99559.63;10471502;27;20503;-62
2021/07/31 08:48:33;;;;;;;;;;;;;;;21.98;45.25;99561.75;10458936;28;20713;-62
2021/07/31 08:53:34;;;;;;;;;;;;;;;22.09;44.57;99552.94;10477658;28;19974;-62
2021/07/31 08:58:40;;;;;;;;;;;;;;;22.21;44.57;99558.53;10478140;28;20009;-61
2021/07/31 09:03:45;;;;;;;;;;;;;;;22.45;44.36;99562.38;10477169;28;20527;-62
2021/07/31 09:08:47;;;;;;;;;;;;;;;;;;10472960;28;20545;-62
2021/07/31 09:13:48;;;;;;;;;;;;;;;22.53;44.02;99551.28;10466297;28;20062;-62
2021/07/31 09:18:49;;;;;;;;;;;;;;;22.67;44.53;99548.44;10452794;28;20392;-62
2021/07/31 09:23:54;;;;;;;;;;;;;;;22.97;43.58;99547.78;10445320;28;19932;-62
2021/07/31 09:29:01;;;;;;;;;;;;;;;23.04;42.60;99556.72;10440763;28;19935;-62
2021/07/31 09:34:04;;;;;;;;;;;;;;;22.84;42.12;99554.19;10413709;28;21604;-62
2021/07/31 09:39:06;;;;;;;;;;;;;;;22.97;41.60;99548.66;10436349;28;19931;-63
2021/07/31 09:44:10;;;;;;;;;;;;;;;23.10;42.19;99550.44;10450482;28;19971;-64
2021/07/31 09:49:13;;;;;;;;;;;;;;;23.42;41.82;99550.31;10451907;28;20027;-64
2021/07/31 09:54:15;;;;;;;;;;;;;;;23.75;39.23;99554.56;10455738;28;20412;-61
2021/07/31 09:59:17;;;;;;;;;;;;;;;24.02;39.84;99546.09;10469578;28;20027;-60
2021/07/31 10:04:19;;;;;;;;;;;;;;;24.28;39.07;99548.47;10475216;28;19990;-61
2021/07/31 10:09:20;;;;;;;;;;;;;;;24.58;38.16;99547.66;10469566;28;20026;-62
2021/07/31 10:14:22;;;;;;;;;;;;;;;24.39;39.32;99537.88;10467189;28;19925;-62
2021/07/31 10:19:24;;;;;;;;;;;;;;;24.74;37.47;99526.25;10470800;28;19928;-62
2021/07/31 10:24:26;;;;;;;;;;;;;;;24.94;36.03;99534.94;10466040;28;19964;-62
2021/07/31 10:29:27;;;;;;;;;;;;;;;24.69;36.75;99532.41;10448418;28;19967;-62
2021/07/31 10:34:44;;;;;;;;;;;;;;;24.59;36.30;99538.44;10449025;28;20012;-62
2021/07/31 10:39:45;;;;;;;;;;;;;;;24.98;37.08;99535.28;10467043;28;19959;-62
2021/07/31 10:45:10;;;;;;;;;;;;;;;25.66;35.37;99533.84;10472735;28;20385;-62
2021/07/31 10:50:27;;;;;;;;;;;;;;;25.38;35.61;99527.25;10458229;28;20378;-64
2021/07/31 10:55:37;;;;;;;;;;;;;;;25.86;34.76;99513.53;10467488;28;19960;-64
2021/07/31 11:00:43;;;;;;;;;;;;;;;25.84;33.89;99510.22;10446773;28;19924;-65
2021/07/31 11:05:47;;;;;;;;;;;;;;;25.37;34.90;99511.13;10454456;28;20279;-64
2021/07/31 11:10:50;;;;;;;;;;;;;;;25.85;34.65;99514.59;10465639;28;20040;-65
2021/07/31 11:16:00;;;;;;;;;;;;;;;26.10;33.25;99511.56;10473382;28;19963;-65
2021/07/31 11:21:13;;;;;;;;;;;;;;;26.49;33.05;99521.81;10468647;28;20087;-65
2021/07/31 11:26:31;;;;;;;;;;;;;;;26.68;32.43;99515.06;10477858;28;20044;-65
2021/07/31 11:31:32;;;;;;;;;;;;;;;27.43;31.79;99515.66;10480932;28;19985;-65
2021/07/31 11:36:35;;;;;;;;;;;;;;;27.10;32.10;99511.09;10476647;28;19931;-65
2021/07/31 11:41:37;;;;;;;;;;;;;;;27.64;31.65;99515.94;10480766;28;19932;-66
2021/07/31 11:46:46;;;;;;;;;;;;;;;27.90;30.53;99513.50;10476617;28;19924;-65
2021/07/31 11:51:48;;;;;;;;;;;;;;;28.05;30.01;99510.97;10473348;28;20005;-65
2021/07/31 11:56:50;;;;;;;;;;;;;;;27.73;31.35;99508.94;10469727;28;19989;-65
2021/07/31 12:01:53;;;;;;;;;;;;;;;28.00;31.05;99524.59;10469353;28;19953;-65
2021/07/31 12:07:06;;;;;;;;;;;;;;;27.91;30.50;99516.00;10465299;28;19977;-65
2021/07/31 12:12:27;;;;;;;;;;;;;;;27.46;31.97;99531.56;10471167;28;20035;-64
2021/07/31 12:17:28;;;;;;;;;;;;;;;26.62;33.16;99529.69;10452913;28;20373;-64
2021/07/31 12:22:34;;;;;;;;;;;;;;;26.57;32.95;99513.19;10468248;28;20511;-64
2021/07/31 12:27:54;;;;;;;;;;;;;;;26.51;32.57;99530.56;10465548;28;19943;-64
2021/07/31 12:32:57;;;;;;;;;;;;;;;26.42;33.51;99525.53;10457350;28;19936;-64
2021/07/31 12:37:58;;;;;;;;;;;;;;;26.32;32.98;99527.22;10486368;28;20064;-64
2021/07/31 12:43:00;;;;;;;;;;;;;;;26.60;33.03;99527.19;10486528;28;20069;-64
2021/07/31 12:48:01;;;;;;;;;;;;;;;26.76;32.58;99528.28;10485781;28;20031;-64
2021/07/31 12:53:03;;;;;;;;;;;;;;;27.03;31.18;99537.72;10483977;28;20595;-64
2021/07/31 12:58:04;;;;;;;;;;;;;;;26.48;32.52;99536.50;10483577;28;20441;-64
2021/07/31 13:03:06;;;;;;;;;;;;;;;26.43;31.86;99529.88;10484797;28;20449;-63
2021/07/31 13:08:08;;;;;;;;;;;;;;;26.42;31.60;99539.16;10480800;28;19932;-64
2021/07/31 13:13:11;;;;;;;;;;;;;;;26.39;32.26;99541.53;10478658;28;20586;-63
2021/07/31 13:18:19;;;;;;;;;;;;;;;25.94;32.51;99552.13;10484277;28;20084;-63
2021/07/31 13:23:21;;;;;;;;;;;;;;;25.83;33.14;99539.34;10484246;28;19931;-64
2021/07/31 13:28:22;;;;;;;;;;;;;;;25.41;33.49;99545.00;10482386;28;20412;-64
2021/07/31 13:33:23;;;;;;;;;;;;;;;25.53;33.71;99554.00;10483509;27;20022;-64
2021/07/31 13:38:33;;;;;;;;;;;;;;;25.56;33.47;99552.69;10482358;28;21746;-64
2021/07/31 13:43:37;;;;;;;;;;;;;;;25.79;33.20;99562.72;10484212;28;19939;-65
2021/07/31 13:48:38;;;;;;;;;;;;;;;25.57;33.75;99557.09;10465717;28;19990;-63
2021/07/31 13:53:39;;;;;;;;;;;;;;;25.56;33.61;99558.16;10483716;27;20454;-63
2021/07/31 13:58:41;;;;;;;;;;;;;;;25.52;34.02;99552.34;10485645;28;20096;-62
2021/07/31 14:03:42;;;;;;;;;;;;;;;25.05;34.61;99553.16;10483824;28;20039;-63
2021/07/31 14:08:44;;;;;;;;;;;;;;;25.55;34.17;99529.22;10464729;28;21441;-63
2021/07/31 14:13:45;;;;;;;;;;;;;;;25.64;33.72;99544.16;10476503;28;20597;-63
2021/07/31 14:18:47;;;;;;;;;;;;;;;25.44;33.48;99543.72;10481822;28;19928;-63
2021/07/31 14:23:48;;;;;;;;;;;;;;;25.64;33.54;99538.72;10461881;27;20019;-63
2021/07/31 14:28:49;;;;;;;;;;;;;;;25.85;33.34;99533.66;10464752;28;19955;-64
2021/07/31 14:33:50;;;;;;;;;;;;;;;25.65;33.26;99540.34;10481068;28;20417;-63
2021/07/31 14:38:52;;;;;;;;;;;;;;;25.68;32.99;99528.16;10479125;28;19942;-64
2021/07/31 14:43:53;;;;;;;;;;;;;;;25.77;33.27;99532.16;10475725;28;19924;-63
2021/07/31 14:48:55;;;;;;;;;;;;;;;25.77;33.22;99526.69;10475195;28;20019;-65
2021/07/31 14:53:56;;;;;;;;;;;;;;;25.66;33.38;99522.94;10474525;28;20358;-64
2021/07/31 14:58:58;;;;;;;;;;;;;;;25.88;33.32;99525.84;10456321;28;20452;-63
2021/07/31 15:04:00;;;;;;;;;;;;;;;25.62;33.33;99521.75;10474160;28;19933;-63
2021/07/31 15:09:02;;;;;;;;;;;;;;;25.62;33.29;99526.38;10475511;28;20682;-63
2021/07/31 15:14:05;;;;;;;;;;;;;;;25.72;33.08;99529.34;10466344;28;21390;-64
2021/07/31 15:19:06;;;;;;;;;;;;;;;25.67;33.40;99524.59;10455959;28;20027;-63
2021/07/31 15:24:07;;;;;;;;;;;;;;;25.35;33.42;99514.09;10473682;28;19927;-63
2021/07/31 15:29:09;;;;;;;;;;;;;;;25.27;34.05;99521.81;10448128;28;19975;-62
2021/07/31 15:34:10;;;;;;;;;;;;;;;25.15;34.00;99519.91;10464282;28;20092;-63
2021/07/31 15:39:11;;;;;;;;;;;;;;;25.28;34.20;99502.50;10471342;28;20022;-63
2021/07/31 15:44:13;;;;;;;;;;;;;;;25.23;34.75;99521.44;10469723;28;20054;-63
2021/07/31 15:49:14;;;;;;;;;;;;;;;25.14;34.40;99528.31;10473686;28;20689;-65
2021/07/31 15:54:15;;;;;;;;;;;;;;;24.67;35.02;99513.59;10472027;28;20041;-63
2021/07/31 15:59:17;;;;;;;;;;;;;;;24.77;35.31;99525.78;10472833;28;20065;-63
2021/07/31 16:04:18;;;;;;;;;;;;;;;24.95;34.98;99513.97;10473529;28;20179;-63
2021/07/31 16:09:19;;;;;;;;;;;;;;;24.92;35.14;99512.56;10472181;28;20249;-63
2021/07/31 16:14:21;;;;;;;;;;;;;;;25.08;35.39;99504.75;10471805;28;19955;-63
2021/07/31 16:19:22;;;;;;;;;;;;;;;24.58;35.02;99503.28;10477721;28;19935;-63
2021/07/31 16:24:23;;;;;;;;;;;;;;;24.35;35.88;99496.72;10481619;28;20023;-63
2021/07/31 16:29:25;;;;;;;;;;;;;;;24.45;36.14;99482.53;10476085;27;20434;-63
2021/07/31 16:34:26;;;;;;;;;;;;;;;24.45;36.44;99486.06;10481263;28;20027;-63
2021/07/31 16:39:28;;;;;;;;;;;;;;;24.45;36.11;99483.34;10480177;28;20201;-63
2021/07/31 16:44:29;;;;;;;;;;;;;;;24.16;36.25;99490.50;10464430;28;20036;-62
2021/07/31 16:49:35;;;;;;;;;;;;;;;24.26;36.21;99490.78;10455735;28;19924;-63
2021/07/31 16:54:36;;;;;;;;;;;;;;;24.27;36.33;99495.13;10471229;28;19973;-63
2021/07/31 16:59:38;;;;;;;;;;;;;;;24.20;36.15;99494.44;10475765;28;20424;-63
2021/07/31 17:04:39;;;;;;;;;;;;;;;23.92;36.39;99489.59;10441379;28;19978;-63
2021/07/31 17:09:41;;;;;;;;;;;;;;;23.91;36.81;99488.75;10461993;28;19928;-63
2021/07/31 17:14:44;;;;;;;;;;;;;;;24.10;36.90;99499.59;10476547;28;20052;-62
2021/07/31 17:19:46;;;;;;;;;;;;;;;24.03;36.61;99498.84;10475963;28;19932;-64
2021/07/31 17:24:47;;;;;;;;;;;;;;;23.91;36.89;99496.91;10476685;27;20408;-63
2021/07/31 17:29:48;;;;;;;;;;;;;;;23.74;36.88;99498.56;10458480;28;19955;-63
2021/07/31 17:34:50;;;;;;;;;;;;;;;23.55;37.45;99495.84;10477580;28;19935;-63
2021/07/31 17:39:52;;;;;;;;;;;;;;;23.41;38.00;99506.03;10452812;28;20415;-63
2021/07/31 17:44:53;;;;;;;;;;;;;;;23.25;38.06;99512.06;10466061;28;20011;-63
2021/07/31 17:49:54;;;;;;;;;;;;;;;23.16;38.61;99502.56;10456523;28;20080;-63
2021/07/31 17:54:56;;;;;;;;;;;;;;;23.18;38.92;99511.31;10452808;28;19932;-63
2021/07/31 17:59:57;;;;;;;;;;;;;;;23.27;38.60;99520.84;10473297;28;20009;-64
2021/07/31 18:04:58;;;;;;;;;;;;;;;23.25;38.72;99517.50;10477264;28;20475;-64
2021/07/31 18:10:00;;;;;;;;;;;;;;;23.12;38.92;99521.19;10476620;28;21984;-64
2021/07/31 18:15:02;;;;;;;;;;;;;;;22.95;39.49;99513.59;10473701;28;19924;-63
2021/07/31 18:20:04;;;;;;;;;;;;;;;22.69;39.97;99519.25;10469051;28;20796;-63
2021/07/31 18:25:06;;;;;;;;;;;;;;;22.60;40.75;99533.06;10477175;28;25322;-63
2021/07/31 18:30:08;;;;;;;;;;;;;;;22.70;40.50;99537.16;10477698;28;19963;-63
2021/07/31 18:35:10;;;;;;;;;;;;;;;22.63;40.70;99530.97;10476084;28;20479;-63
2021/07/31 18:40:11;;;;;;;;;;;;;;;22.59;41.07;99536.00;10458979;28;19989;-60
2021/07/31 18:45:13;;;;;;;;;;;;;;;22.54;41.35;99522.28;10478841;28;20010;-58
2021/07/31 18:50:14;;;;;;;;;;;;;;;22.49;41.50;99533.78;10477127;28;20007;-59
2021/07/31 18:55:15;;;;;;;;;;;;;;;22.36;41.98;99528.44;10473731;28;19963;-59
2021/07/31 19:00:17;;;;;;;;;;;;;;;22.20;42.23;99537.88;10476740;28;19936;-58
2021/07/31 19:05:18;;;;;;;;;;;;;;;22.15;43.01;99543.94;10473252;28;20010;-59
2021/07/31 19:10:19;;;;;;;;;;;;;;;21.95;43.30;99548.63;10475339;28;20418;-59
2021/07/31 19:15:21;;;;;;;;;;;;;;;22.01;43.63;99540.47;10456586;28;19959;-60
2021/07/31 19:20:22;;;;;;;;;;;;;;;21.96;43.41;99547.59;10465544;28;20568;-60
2021/07/31 19:25:23;;;;;;;;;;;;;;;21.89;43.86;99556.59;10466429;28;19975;-60
2021/07/31 19:30:25;;;;;;;;;;;;;;;21.78;43.88;99551.81;10472620;28;20012;-59
2021/07/31 19:35:26;;;;;;;;;;;;;;;21.78;44.39;99557.25;10470886;28;20083;-59
2021/07/31 19:40:27;;;;;;;;;;;;;;;21.81;44.87;99551.41;10472423;28;19955;-60
2021/07/31 19:45:29;;;;;;;;;;;;;;;21.74;44.69;99544.34;10476715;28;19960;-59
2021/07/31 19:50:30;;;;;;;;;;;;;;;21.80;44.91;99549.75;10483567;27;20344;-60
2021/07/31 19:55:31;;;;;;;;;;;;;;;21.82;45.26;99544.94;10484868;28;20030;-60
2021/07/31 20:00:33;;;;;;;;;;;;;;;21.79;45.59;99545.38;10480379;28;19924;-63
2021/07/31 20:05:34;;;;;;;;;;;;;;;21.77;45.91;99550.19;10482105;28;19932;-63
2021/07/31 20:10:36;;;;;;;;;;;;;;;21.65;46.05;99549.19;10480550;28;20684;-63
2021/07/31 20:15:37;;;;;;;;;;;;;;;21.63;46.39;99548.56;10461444;28;20027;-64
2021/07/31 20:20:39;;;;;;;;;;;;;;;21.47;46.95;99553.34;10454761;28;19947;-62
2021/07/31 20:25:40;;;;;;;;;;;;;;;21.53;46.85;99554.41;10479871;28;19924;-62
2021/07/31 20:30:42;;;;;;;;;;;;;;;21.54;47.06;99535.25;10480190;28;24877;-62
2021/07/31 20:35:43;;;;;;;;;;;;;;;21.53;47.39;99533.59;10479049;28;20587;-62
2021/07/31 20:40:44;;;;;;;;;;;;;;;21.52;47.33;99539.22;10478939;28;20027;-61
2021/07/31 20:45:46;;;;;;;;;;;;;;;21.47;47.25;99528.16;10479669;28;19987;-61
2021/07/31 20:50:47;;;;;;;;;;;;;;;21.39;47.67;99525.69;10477966;28;19933;-62
2021/07/31 20:55:49;;;;;;;;;;;;;;;21.39;47.85;99531.09;10463025;27;20023;-61
2021/07/31 21:00:52;;;;;;;;;;;;;;;21.40;47.84;99530.06;10478959;28;20015;-62
2021/07/31 21:05:54;;;;;;;;;;;;;;;21.38;47.81;99524.84;10475909;28;19997;-61
2021/07/31 21:10:55;;;;;;;;;;;;;;;21.34;48.17;99507.38;10478697;28;20058;-61
2021/07/31 21:15:57;;;;;;;;;;;;;;;21.28;48.36;99491.97;10462740;28;19931;-61
2021/07/31 21:20:58;;;;;;;;;;;;;;;21.23;48.59;99502.59;10472222;28;19962;-62
2021/07/31 21:25:59;;;;;;;;;;;;;;;21.16;48.59;99503.44;10482171;28;20001;-62
2021/07/31 21:31:01;;;;;;;;;;;;;;;21.13;49.56;99505.75;10475192;28;20007;-53
2021/07/31 21:36:04;;;;;;;;;;;;;;;21.17;49.55;99502.41;10480927;28;19935;-53
2021/07/31 21:41:05;;;;;;;;;;;;;;;21.21;49.33;99501.97;10480529;28;20783;-53
2021/07/31 21:46:07;;;;;;;;;;;;;;;21.16;49.35;99502.63;10480855;28;20074;-52
2021/07/31 21:51:09;;;;;;;;;;;;;;;21.15;49.99;99498.25;10462486;28;19970;-52
2021/07/31 21:56:11;;;;;;;;;;;;;;;21.11;49.90;99497.03;10475090;28;20014;-53
2021/07/31 22:01:15;;;;;;;;;;;;;;;21.11;49.89;99507.84;10457168;28;20599;-53
2021/07/31 22:06:18;;;;;;;;;;;;;;;21.08;49.91;99514.50;10455172;28;20023;-52
2021/07/31 22:11:20;;;;;;;;;;;;;;;21.08;49.92;99508.28;10445263;28;19939;-52
2021/07/31 22:16:24;;;;;;;;;;;;;;;21.10;50.21;99511.59;10418918;28;19924;-52
2021/07/31 22:21:26;;;;;;;;;;;;;;;21.14;49.98;99520.94;10437950;28;20404;-52
2021/07/31 22:26:27;;;;;;;;;;;;;;;21.15;49.73;99528.00;10441362;28;19925;-53
2021/07/31 22:31:29;;;;;;;;;;;;;;;21.15;49.84;99531.56;10434449;28;20026;-52
2021/07/31 22:36:30;;;;;;;;;;;;;;;21.05;50.44;99530.31;10435807;28;20007;-52
2021/07/31 22:41:32;;;;;;;;;;;;;;;21.02;50.59;99534.28;10443086;28;20332;-52
2021/07/31 22:46:33;;;;;;;;;;;;;;;21.00;50.84;99539.91;10440188;28;19956;-53
2021/07/31 22:51:35;;;;;;;;;;;;;;;21.01;51.01;99546.13;10436010;28;19995;-52
2021/07/31 22:56:36;;;;;;;;;;;;;;;21.01;50.99;99546.97;10445032;28;20022;-51
2021/07/31 23:01:37;;;;;;;;;;;;;;;20.96;51.26;99535.94;10429871;28;20009;-52
2021/07/31 23:06:39;;;;;;;;;;;;;;;20.99;51.16;99527.41;10435491;28;19932;-52
2021/07/31 23:11:40;;;;;;;;;;;;;;;20.98;51.09;99536.56;10462683;28;19968;-52
2021/07/31 23:16:42;;;;;;;;;;;;;;;21.00;51.21;99533.63;10434793;28;20477;-52
2021/07/31 23:21:43;;;;;;;;;;;;;;;20.94;51.33;99518.25;10437108;28;20329;-53
2021/07/31 23:26:45;;;;;;;;;;;;;;;20.93;51.56;99516.59;10448835;28;19956;-52
2021/07/31 23:31:46;;;;;;;;;;;;;;;20.81;51.46;99497.47;10435535;28;19971;-51
2021/07/31 23:36:48;;;;;;;;;;;;;;;20.81;51.68;99482.06;10445385;28;19987;-51
2021/07/31 23:41:49;;;;;;;;;;;;;;;20.75;51.05;99496.44;10444632;28;19952;-53
2021/07/31 23:46:50;;;;;;;;;;;;;;;20.64;51.06;99503.25;10450406;28;20401;-52
2021/07/31 23:51:52;;;;;;;;;;;;;;;20.63;51.19;99498.06;10447371;28;19925;-52
2021/07/31 23:56:53;;;;;;;;;;;;;;;20.67;51.35;99499.31;10450296;28;20111;-52
